createdAt,value
2022-12-28T00:02:30.417Z,0.50
2022-12-28T00:05:02.277Z,0.50
2022-12-28T00:07:34.015Z,0.50
2022-12-28T00:10:06.288Z,0.50
2022-12-28T00:12:38.002Z,0.50
2022-12-28T00:15:10.106Z,0.50
2022-12-28T00:17:41.800Z,0.50
2022-12-28T00:20:13.672Z,0.50
2022-12-28T00:22:45.427Z,0.50
2022-12-28T00:25:17.691Z,0.50
2022-12-28T00:27:49.393Z,0.40
2022-12-28T00:30:21.080Z,0.40
2022-12-28T00:32:52.831Z,0.40
2022-12-28T00:35:24.520Z,0.40
2022-12-28T00:37:56.315Z,0.40
2022-12-28T00:40:28.044Z,0.40
2022-12-28T00:42:59.853Z,0.40
2022-12-28T00:45:31.608Z,0.40
2022-12-28T00:48:03.668Z,0.40
2022-12-28T00:50:36.213Z,0.40
2022-12-28T00:53:08.459Z,0.40
2022-12-28T00:55:40.643Z,0.40
2022-12-28T00:58:13.700Z,0.40
2022-12-28T01:00:45.431Z,0.40
2022-12-28T01:03:17.267Z,0.30
2022-12-28T01:05:49.023Z,0.30
2022-12-28T01:08:21.040Z,0.30
2022-12-28T01:10:52.795Z,0.40
2022-12-28T01:13:24.537Z,0.40
2022-12-28T01:15:56.250Z,0.40
2022-12-28T01:18:27.958Z,0.40
2022-12-28T01:21:00.252Z,0.40
2022-12-28T01:23:31.993Z,0.40
2022-12-28T01:26:03.975Z,0.40
2022-12-28T01:28:36.042Z,0.40
2022-12-28T01:31:18.991Z,-1.80
2022-12-28T01:33:50.996Z,0.40
2022-12-28T01:36:25.097Z,0.40
2022-12-28T01:38:59.880Z,0.30
2022-12-28T01:41:32.806Z,0.30
2022-12-28T01:44:04.469Z,0.40
2022-12-28T01:46:54.857Z,2.40
2022-12-28T01:49:34.605Z,0.30
2022-12-28T01:52:21.870Z,0.40
2022-12-28T01:55:15.853Z,0.40
2022-12-28T01:58:03.465Z,0.30
2022-12-28T02:00:35.537Z,0.30
2022-12-28T02:03:13.890Z,0.30
2022-12-28T02:05:50.365Z,0.40
2022-12-28T02:08:44.939Z,0.30
2022-12-28T02:11:19.233Z,0.30
2022-12-28T02:13:52.574Z,0.30
2022-12-28T02:16:24.605Z,0.40
2022-12-28T02:18:56.430Z,0.40
2022-12-28T02:22:06.733Z,0.40
2022-12-28T02:25:17.946Z,0.30
2022-12-28T02:28:11.581Z,0.30
2022-12-28T02:31:08.207Z,0.20
2022-12-28T02:34:09.524Z,0.30
2022-12-28T02:36:50.013Z,2.10
2022-12-28T02:39:44.411Z,0.30
2022-12-28T02:42:17.763Z,0.30
2022-12-28T02:45:07.937Z,0.20
2022-12-28T02:48:02.584Z,0.20
2022-12-28T02:50:53.593Z,0.20
2022-12-28T02:53:55.039Z,0.20
2022-12-28T02:56:52.358Z,0.20
2022-12-28T02:59:39.023Z,0.20
2022-12-28T03:02:34.455Z,0.20
2022-12-28T03:05:54.351Z,0.30
2022-12-28T03:08:56.259Z,0.20
2022-12-28T03:11:41.804Z,0.30
2022-12-28T03:14:21.007Z,0.20
2022-12-28T03:17:27.426Z,0.20
2022-12-28T03:20:28.139Z,0.30
2022-12-28T03:23:19.466Z,0.20
2022-12-28T03:26:11.530Z,0.20
2022-12-28T03:29:06.199Z,0.20
2022-12-28T03:31:43.061Z,0.30
2022-12-28T03:34:17.794Z,0.20
2022-12-28T03:36:55.511Z,0.20
2022-12-28T03:40:00.238Z,0.20
2022-12-28T03:43:11.292Z,0.10
2022-12-28T03:46:10.157Z,0.10
2022-12-28T03:48:44.740Z,0.10
2022-12-28T03:51:22.432Z,0.10
2022-12-28T03:53:55.043Z,0.10
2022-12-28T03:56:28.437Z,0.10
2022-12-28T03:59:03.905Z,0.20
2022-12-28T04:01:45.074Z,0.10
2022-12-28T04:04:16.842Z,0.10
2022-12-28T04:06:49.122Z,0.10
2022-12-28T04:09:22.351Z,0.20
2022-12-28T04:11:54.116Z,0.20
2022-12-28T04:14:38.051Z,0.10
2022-12-28T04:17:09.788Z,0.10
2022-12-28T04:19:41.627Z,0.10
2022-12-28T04:22:13.306Z,-2.00
2022-12-28T04:24:45.054Z,0.00
2022-12-28T04:27:16.856Z,0.00
2022-12-28T04:29:48.687Z,0.00
2022-12-28T04:32:24.130Z,0.10
2022-12-28T04:34:55.814Z,0.10
2022-12-28T04:37:27.515Z,0.10
2022-12-28T04:39:59.339Z,0.10
2022-12-28T04:42:32.657Z,0.10
2022-12-28T04:45:04.773Z,0.10
2022-12-28T04:47:36.476Z,0.00
2022-12-28T04:50:08.501Z,0.00
2022-12-28T04:52:40.173Z,0.00
2022-12-28T04:55:33.049Z,0.10
2022-12-28T04:58:04.682Z,0.10
2022-12-28T05:00:36.467Z,0.00
2022-12-28T05:03:08.388Z,0.00
2022-12-28T05:05:40.411Z,0.00
2022-12-28T05:08:12.094Z,0.00
2022-12-28T05:10:43.799Z,0.00
2022-12-28T05:13:15.473Z,0.00
2022-12-28T05:15:47.176Z,0.00
2022-12-28T05:18:18.937Z,0.00
2022-12-28T05:20:50.608Z,0.00
2022-12-28T05:23:22.291Z,0.00
2022-12-28T05:25:54.320Z,0.00
2022-12-28T05:28:26.372Z,0.00
2022-12-28T05:31:02.982Z,0.00
2022-12-28T05:33:35.843Z,0.00
2022-12-28T05:36:10.363Z,0.00
2022-12-28T05:38:42.327Z,0.00
2022-12-28T05:41:19.032Z,0.00
2022-12-28T05:43:51.605Z,0.00
2022-12-28T05:46:25.860Z,0.00
2022-12-28T05:48:58.127Z,0.10
2022-12-28T05:51:31.976Z,0.10
2022-12-28T05:54:04.465Z,0.10
2022-12-28T05:56:36.357Z,0.10
2022-12-28T05:59:09.977Z,0.10
2022-12-28T06:01:44.552Z,0.10
2022-12-28T06:04:18.194Z,0.10
2022-12-28T06:06:50.137Z,0.10
2022-12-28T06:09:21.931Z,0.20
2022-12-28T06:11:53.623Z,0.10
2022-12-28T06:14:25.483Z,0.20
2022-12-28T06:16:57.180Z,0.20
2022-12-28T06:19:28.890Z,0.20
2022-12-28T06:22:00.562Z,0.20
2022-12-28T06:24:32.411Z,0.20
2022-12-28T06:27:04.169Z,0.20
2022-12-28T06:29:35.883Z,0.20
2022-12-28T06:32:07.675Z,0.20
2022-12-28T06:34:39.388Z,0.20
2022-12-28T06:37:11.067Z,0.20
2022-12-28T06:39:42.751Z,0.20
2022-12-28T06:42:14.432Z,0.20
2022-12-28T06:44:46.103Z,0.30
2022-12-28T06:47:17.883Z,0.30
2022-12-28T06:49:49.562Z,0.20
2022-12-28T06:52:21.399Z,0.30
2022-12-28T06:54:53.112Z,0.30
2022-12-28T06:57:24.779Z,0.30
2022-12-28T06:59:56.492Z,0.30
2022-12-28T07:02:28.293Z,0.40
2022-12-28T07:05:00.171Z,0.40
2022-12-28T07:07:31.892Z,0.40
2022-12-28T07:10:04.348Z,0.40
2022-12-28T07:12:36.032Z,0.50
2022-12-28T07:15:08.212Z,0.50
2022-12-28T07:17:39.881Z,0.50
2022-12-28T07:20:12.025Z,0.50
2022-12-28T07:22:43.796Z,0.50
2022-12-28T07:25:15.620Z,0.50
2022-12-28T07:27:47.310Z,2.00
2022-12-28T07:30:19.071Z,0.60
2022-12-28T07:32:50.811Z,0.60
2022-12-28T07:35:22.534Z,0.60
2022-12-28T07:37:54.450Z,0.60
2022-12-28T07:40:26.142Z,0.60
2022-12-28T07:43:00.408Z,0.70
2022-12-28T07:45:32.153Z,0.70
2022-12-28T07:48:04.044Z,0.70
2022-12-28T07:50:37.948Z,0.70
2022-12-28T07:53:09.933Z,0.70
2022-12-28T07:55:43.478Z,0.80
2022-12-28T07:58:15.171Z,0.70
2022-12-28T08:00:46.882Z,0.80
2022-12-28T08:03:19.637Z,0.80
2022-12-28T08:05:51.345Z,0.80
2022-12-28T08:08:23.027Z,0.80
2022-12-28T08:10:54.767Z,0.80
2022-12-28T08:13:26.544Z,0.80
2022-12-28T08:15:58.381Z,0.90
2022-12-28T08:18:30.828Z,0.90
2022-12-28T08:21:04.944Z,1.00
2022-12-28T08:23:36.642Z,1.00
2022-12-28T08:26:14.598Z,1.10
2022-12-28T08:28:47.515Z,3.10
2022-12-28T08:31:22.092Z,1.10
2022-12-28T08:33:55.473Z,1.20
2022-12-28T08:36:27.397Z,1.20
2022-12-28T08:39:00.923Z,1.20
2022-12-28T08:41:32.758Z,1.20
2022-12-28T08:44:04.799Z,1.20
2022-12-28T08:46:37.077Z,1.30
2022-12-28T08:49:09.091Z,1.30
2022-12-28T08:51:41.717Z,1.30
2022-12-28T08:54:14.639Z,1.30
2022-12-28T08:56:46.570Z,1.40
2022-12-28T08:59:19.245Z,1.40
2022-12-28T09:01:51.041Z,1.40
2022-12-28T09:04:23.024Z,1.40
2022-12-28T09:06:54.798Z,1.50
2022-12-28T09:09:26.503Z,1.50
2022-12-28T09:11:58.180Z,1.60
2022-12-28T09:14:29.843Z,1.70
2022-12-28T09:17:02.185Z,1.70
2022-12-28T09:19:33.897Z,1.80
2022-12-28T09:22:05.575Z,1.80
2022-12-28T09:24:37.256Z,1.90
2022-12-28T09:27:08.936Z,1.90
2022-12-28T09:29:41.007Z,2.00
2022-12-28T09:32:12.716Z,2.10
2022-12-28T09:34:44.419Z,2.20
2022-12-28T09:37:16.148Z,2.20
2022-12-28T09:39:48.375Z,2.30
2022-12-28T09:42:24.348Z,2.40
2022-12-28T09:45:02.143Z,2.40
2022-12-28T09:47:48.115Z,2.40
2022-12-28T09:50:21.676Z,2.40
2022-12-28T09:53:05.533Z,2.40
2022-12-28T09:55:39.879Z,2.40
2022-12-28T09:58:15.681Z,2.20
2022-12-28T10:00:51.190Z,2.20
2022-12-28T10:03:33.202Z,2.10
2022-12-28T10:06:21.517Z,2.20
2022-12-28T10:08:56.532Z,2.20
2022-12-28T10:11:35.643Z,2.20
2022-12-28T10:14:27.117Z,2.20
2022-12-28T10:16:58.812Z,2.30
2022-12-28T10:19:30.539Z,2.30
2022-12-28T10:22:08.032Z,2.30
2022-12-28T10:24:40.704Z,2.30
2022-12-28T10:27:30.096Z,2.30
2022-12-28T10:30:06.643Z,2.30
2022-12-28T10:33:01.350Z,2.30
2022-12-28T10:35:43.073Z,2.30
2022-12-28T10:38:29.141Z,2.30
2022-12-28T10:41:04.589Z,2.40
2022-12-28T10:43:40.379Z,2.40
2022-12-28T10:46:18.121Z,2.40
2022-12-28T10:48:55.672Z,2.50
2022-12-28T10:51:29.696Z,3.20
2022-12-28T10:54:01.387Z,2.60
2022-12-28T10:56:43.942Z,2.60
2022-12-28T10:59:23.951Z,2.70
2022-12-28T11:02:24.518Z,2.70
2022-12-28T11:05:00.266Z,2.70
2022-12-28T11:07:37.543Z,2.80
2022-12-28T11:10:26.879Z,2.80
2022-12-28T11:13:00.606Z,2.90
2022-12-28T11:15:33.405Z,2.90
2022-12-28T11:18:17.142Z,3.10
2022-12-28T11:20:53.941Z,3.30
2022-12-28T11:23:31.496Z,3.50
2022-12-28T11:26:03.685Z,3.60
2022-12-28T11:28:35.413Z,3.70
2022-12-28T11:31:14.122Z,4.00
2022-12-28T11:33:49.959Z,4.10
2022-12-28T11:36:25.940Z,4.20
2022-12-28T11:38:58.341Z,4.20
2022-12-28T11:41:46.973Z,4.20
2022-12-28T11:44:30.852Z,4.20
2022-12-28T11:47:28.097Z,4.20
2022-12-28T11:50:38.769Z,4.20
2022-12-28T11:53:43.444Z,4.30
2022-12-28T11:56:18.414Z,4.50
2022-12-28T11:58:59.157Z,4.60
2022-12-28T12:01:32.316Z,4.80
2022-12-28T12:04:04.001Z,4.80
2022-12-28T12:06:44.874Z,4.70
2022-12-28T12:09:22.720Z,4.60
2022-12-28T12:12:20.527Z,4.60
2022-12-28T12:15:01.179Z,4.50
2022-12-28T12:18:04.402Z,4.40
2022-12-28T12:20:51.244Z,4.30
2022-12-28T12:23:42.660Z,4.30
2022-12-28T12:26:33.468Z,4.30
2022-12-28T12:29:17.583Z,4.40
2022-12-28T12:31:57.985Z,4.40
2022-12-28T12:34:42.761Z,4.40
2022-12-28T12:37:30.787Z,4.40
2022-12-28T12:40:21.435Z,4.40
2022-12-28T12:42:55.894Z,4.40
2022-12-28T12:45:39.670Z,4.30
2022-12-28T12:48:18.858Z,4.40
2022-12-28T12:51:19.583Z,4.50
2022-12-28T12:54:03.135Z,4.60
2022-12-28T12:56:53.154Z,4.60
2022-12-28T12:59:38.087Z,4.70
2022-12-28T13:02:18.977Z,4.70
2022-12-28T13:04:51.448Z,4.80
2022-12-28T13:07:26.343Z,4.90
2022-12-28T13:10:01.762Z,4.90
2022-12-28T13:12:34.367Z,5.00
2022-12-28T13:15:12.479Z,5.00
2022-12-28T13:18:43.949Z,5.00
2022-12-28T13:21:00.904Z,5.00
2022-12-28T13:23:41.933Z,5.10
2022-12-28T13:26:15.423Z,5.10
2022-12-28T13:28:59.521Z,5.00
2022-12-28T13:31:39.708Z,5.00
2022-12-28T13:34:21.765Z,5.00
2022-12-28T13:36:56.455Z,5.00
2022-12-28T13:39:30.137Z,5.00
2022-12-28T13:42:29.640Z,4.90
2022-12-28T13:45:03.622Z,4.90
2022-12-28T13:47:39.416Z,5.00
2022-12-28T13:50:11.316Z,5.10
2022-12-28T13:52:56.649Z,5.10
2022-12-28T13:55:46.645Z,5.10
2022-12-28T13:58:25.832Z,5.10
2022-12-28T14:01:00.533Z,5.10
2022-12-28T14:03:39.882Z,5.10
2022-12-28T14:06:18.815Z,5.10
2022-12-28T14:08:51.235Z,5.10
2022-12-28T14:11:23.476Z,5.10
2022-12-28T14:13:56.218Z,5.10
2022-12-28T14:16:28.068Z,5.10
2022-12-28T14:19:00.720Z,5.00
2022-12-28T14:21:41.578Z,5.00
2022-12-28T14:24:15.793Z,5.00
2022-12-28T14:26:57.890Z,5.00
2022-12-28T14:29:34.343Z,5.00
2022-12-28T14:32:13.007Z,4.90
2022-12-28T14:34:46.803Z,4.90
2022-12-28T14:37:31.921Z,4.90
2022-12-28T14:40:06.223Z,4.80
2022-12-28T14:42:38.394Z,4.80
2022-12-28T14:46:07.646Z,5.00
2022-12-28T14:48:38.060Z,4.70
2022-12-28T14:51:15.623Z,4.70
2022-12-28T14:54:24.594Z,4.60
2022-12-28T14:57:17.576Z,4.60
2022-12-28T15:00:01.577Z,4.50
2022-12-28T15:02:33.314Z,4.50
2022-12-28T15:05:36.349Z,4.40
2022-12-28T15:08:09.163Z,4.30
2022-12-28T15:10:48.695Z,4.40
2022-12-28T15:13:21.499Z,4.40
2022-12-28T15:15:58.760Z,4.40
2022-12-28T15:18:30.836Z,4.40
2022-12-28T15:21:05.953Z,4.40
2022-12-28T15:23:38.464Z,4.40
2022-12-28T15:26:11.920Z,4.40
2022-12-28T15:28:43.758Z,4.40
2022-12-28T15:31:18.186Z,4.40
2022-12-28T15:33:50.048Z,4.40
2022-12-28T15:36:22.052Z,4.40
2022-12-28T15:38:56.054Z,4.40
2022-12-28T15:41:46.726Z,4.40
2022-12-28T15:44:20.126Z,5.70
2022-12-28T15:46:52.258Z,4.40
2022-12-28T15:49:23.999Z,4.40
2022-12-28T15:51:55.812Z,4.30
2022-12-28T15:54:27.474Z,4.40
2022-12-28T15:56:59.232Z,4.30
2022-12-28T15:59:30.944Z,4.30
2022-12-28T16:02:02.938Z,4.30
2022-12-28T16:04:34.732Z,4.30
2022-12-28T16:07:06.838Z,4.30
2022-12-28T16:09:38.648Z,4.20
2022-12-28T16:12:10.422Z,4.20
2022-12-28T16:14:42.093Z,4.20
2022-12-28T16:17:14.670Z,4.20
2022-12-28T16:19:46.468Z,4.20
2022-12-28T16:22:18.184Z,4.30
2022-12-28T16:24:49.938Z,4.30
2022-12-28T16:27:21.664Z,4.30
2022-12-28T16:29:58.568Z,4.20
2022-12-28T16:32:30.658Z,4.20
2022-12-28T16:35:02.358Z,4.20
2022-12-28T16:37:34.075Z,4.20
2022-12-28T16:40:06.438Z,4.20
2022-12-28T16:42:38.219Z,4.20
2022-12-28T16:45:10.155Z,4.20
2022-12-28T16:47:44.957Z,4.20
2022-12-28T16:50:17.203Z,4.30
2022-12-28T16:52:48.882Z,4.30
2022-12-28T16:55:20.603Z,4.20
2022-12-28T16:57:52.286Z,4.30
2022-12-28T17:00:24.475Z,4.30
2022-12-28T17:02:56.289Z,4.30
2022-12-28T17:05:28.413Z,4.30
2022-12-28T17:08:00.483Z,4.30
2022-12-28T17:10:32.522Z,4.20
2022-12-28T17:13:04.715Z,4.20
2022-12-28T17:15:39.575Z,4.30
2022-12-28T17:18:12.337Z,4.20
2022-12-28T17:20:44.969Z,4.20
2022-12-28T17:23:16.691Z,4.20
2022-12-28T17:25:54.039Z,4.20
2022-12-28T17:28:25.880Z,4.20
2022-12-28T17:31:10.295Z,4.20
2022-12-28T17:33:50.847Z,4.20
2022-12-28T17:36:22.586Z,4.20
2022-12-28T17:38:54.318Z,4.20
2022-12-28T17:41:27.588Z,4.20
2022-12-28T17:44:00.300Z,4.20
2022-12-28T17:46:33.208Z,4.20
2022-12-28T17:49:05.059Z,4.20
2022-12-28T17:51:37.097Z,4.20
2022-12-28T17:54:11.534Z,4.10
2022-12-28T17:56:43.806Z,4.10
2022-12-28T17:59:16.669Z,4.10
2022-12-28T18:01:48.447Z,4.10
2022-12-28T18:04:20.278Z,4.10
2022-12-28T18:06:51.984Z,4.00
2022-12-28T18:09:27.722Z,4.00
2022-12-28T18:12:00.057Z,4.00
2022-12-28T18:14:31.815Z,4.00
2022-12-28T18:17:03.765Z,3.90
2022-12-28T18:19:35.565Z,3.90
2022-12-28T18:22:07.265Z,3.90
2022-12-28T18:24:39.025Z,3.90
2022-12-28T18:27:10.700Z,3.90
2022-12-28T18:29:44.397Z,3.80
2022-12-28T18:32:16.276Z,3.90
2022-12-28T18:34:47.963Z,3.80
2022-12-28T18:37:19.764Z,3.80
2022-12-28T18:39:51.490Z,3.70
2022-12-28T18:42:25.053Z,3.70
2022-12-28T18:44:57.961Z,3.70
2022-12-28T18:47:32.882Z,3.60
2022-12-28T18:50:05.192Z,3.60
2022-12-28T18:52:40.035Z,3.60
2022-12-28T18:55:11.732Z,3.60
2022-12-28T18:57:43.470Z,3.60
2022-12-28T19:00:15.531Z,3.60
2022-12-28T19:02:51.343Z,3.50
2022-12-28T19:05:23.208Z,3.50
2022-12-28T19:07:54.917Z,3.60
2022-12-28T19:10:26.631Z,3.60
2022-12-28T19:12:58.381Z,3.60
2022-12-28T19:15:30.206Z,3.50
2022-12-28T19:18:01.973Z,3.50
2022-12-28T19:20:33.697Z,3.50
2022-12-28T19:23:05.422Z,3.40
2022-12-28T19:25:38.869Z,3.40
2022-12-28T19:28:10.606Z,3.40
2022-12-28T19:30:42.291Z,3.40
2022-12-28T19:33:14.023Z,3.40
2022-12-28T19:35:45.737Z,3.40
2022-12-28T19:38:17.461Z,3.40
2022-12-28T19:40:49.143Z,3.40
2022-12-28T19:43:21.212Z,3.30
2022-12-28T19:45:52.957Z,3.30
2022-12-28T19:48:24.643Z,3.30
2022-12-28T19:50:56.701Z,3.30
2022-12-28T19:53:29.087Z,3.30
2022-12-28T19:56:07.799Z,3.20
2022-12-28T19:58:40.381Z,3.20
2022-12-28T20:01:15.316Z,3.20
2022-12-28T20:03:47.935Z,3.20
2022-12-28T20:06:22.675Z,3.20
2022-12-28T20:08:56.853Z,3.20
2022-12-28T20:11:29.835Z,3.20
2022-12-28T20:14:03.048Z,3.10
2022-12-28T20:16:35.377Z,3.10
2022-12-28T20:19:08.724Z,3.10
2022-12-28T20:21:41.877Z,3.10
2022-12-28T20:24:14.783Z,3.10
2022-12-28T20:26:46.467Z,3.10
2022-12-28T20:29:18.437Z,3.10
2022-12-28T20:31:50.696Z,3.10
2022-12-28T20:34:22.502Z,3.10
2022-12-28T20:36:54.191Z,3.10
2022-12-28T20:39:25.900Z,3.10
2022-12-28T20:42:16.295Z,3.10
2022-12-28T20:44:47.997Z,3.10
2022-12-28T20:47:19.680Z,3.10
2022-12-28T20:49:51.705Z,3.00
2022-12-28T20:52:23.423Z,3.00
2022-12-28T20:54:55.161Z,3.10
2022-12-28T20:57:26.846Z,3.10
2022-12-28T20:59:59.118Z,3.00
2022-12-28T21:02:30.819Z,3.00
2022-12-28T21:05:02.582Z,3.10
2022-12-28T21:07:34.262Z,3.00
2022-12-28T21:10:06.702Z,3.10
2022-12-28T21:12:38.443Z,3.10
2022-12-28T21:15:10.644Z,3.10
2022-12-28T21:17:42.413Z,3.10
2022-12-28T21:20:14.193Z,3.10
2022-12-28T21:22:45.925Z,3.10
2022-12-28T21:25:17.624Z,3.10
2022-12-28T21:27:49.429Z,3.10
2022-12-28T21:30:21.107Z,3.10
2022-12-28T21:32:53.937Z,3.10
2022-12-28T21:35:30.419Z,3.10
2022-12-28T21:38:05.830Z,3.10
2022-12-28T21:40:37.628Z,3.10
2022-12-28T21:43:09.339Z,3.10
2022-12-28T21:45:41.113Z,3.10
2022-12-28T21:48:12.850Z,3.00
2022-12-28T21:50:44.549Z,3.00
2022-12-28T21:53:16.277Z,2.90
2022-12-28T21:55:48.070Z,2.80
2022-12-28T21:58:19.784Z,2.80
2022-12-28T22:01:15.815Z,2.70
2022-12-28T22:04:06.106Z,2.70
2022-12-28T22:06:37.947Z,2.70
2022-12-28T22:09:28.131Z,2.60
2022-12-28T22:12:18.818Z,2.60
2022-12-28T22:14:50.500Z,2.70
2022-12-28T22:17:22.232Z,2.60
2022-12-28T22:19:53.931Z,2.60
2022-12-28T22:22:25.619Z,2.50
2022-12-28T22:24:57.305Z,2.50
2022-12-28T22:27:29.039Z,2.50
2022-12-28T22:30:00.804Z,2.50
2022-12-28T22:32:32.603Z,2.50
2022-12-28T22:35:04.691Z,2.50
2022-12-28T22:37:36.876Z,2.40
2022-12-28T22:40:09.756Z,2.40
2022-12-28T22:42:42.869Z,2.40
2022-12-28T22:45:17.213Z,2.40
2022-12-28T22:47:49.541Z,2.40
2022-12-28T22:50:21.489Z,2.40
2022-12-28T22:52:53.168Z,2.40
2022-12-28T22:55:24.877Z,2.40
2022-12-28T22:57:56.622Z,2.40
2022-12-28T23:00:28.297Z,2.40
2022-12-28T23:03:00.025Z,2.40
2022-12-28T23:05:31.743Z,2.30
2022-12-28T23:08:03.528Z,2.30
2022-12-28T23:10:35.215Z,2.30
2022-12-28T23:13:06.981Z,2.30
2022-12-28T23:15:38.651Z,2.30
2022-12-28T23:18:28.897Z,2.30
2022-12-28T23:21:19.283Z,2.30
2022-12-28T23:24:09.491Z,2.30
2022-12-28T23:26:59.969Z,2.30
2022-12-28T23:29:32.353Z,2.30
2022-12-28T23:32:04.359Z,2.40
2022-12-28T23:34:36.315Z,2.40
2022-12-28T23:37:08.006Z,2.40
2022-12-28T23:39:39.683Z,2.40
2022-12-28T23:42:11.419Z,2.40
2022-12-28T23:44:46.035Z,2.40
2022-12-28T23:47:19.100Z,2.40
2022-12-28T23:49:50.926Z,2.50
2022-12-28T23:52:26.018Z,2.50
2022-12-28T23:54:58.074Z,2.50
2022-12-28T23:57:29.931Z,2.50
